Alexander, IL

2:35 AM CDT on April 27, 2017 (GMT -0500)
Smith Farms | | Change Station
Active Advisory: Flood Warning

Elev 656 ft 39.72 °N, 89.92 °W | Updated 3 seconds ago

Rain
Rain
45.9 °F
Feels Like 38 °F
N
20.0
Wind Variable Wind from West

Today
High -- | Low -- °F
--% Chance of Precip.
Yesterday
High -- | Low -- °F
Precip. -- in
Pressure 29.49 in
Visibility 7.0 miles
Clouds Mostly Cloudy 700 ft
Mostly Cloudy 1700 ft
Overcast 5500 ft
Windchill 38 °F
Dew Point 45 °F
Humidity 98%
Rainfall 0.51 in
Snow Depth Not available.
6:05 AM 7:50 PM
New Moon, 1% visible
METAR KIJX 270715Z AUTO 30016G23KT 7SM RA BKN007 BKN017 OVC055 07/06 A2949 RMK AO2 P0003 T00720063
Pressure 29.49 in
Visibility 7.0 miles
Clouds Mostly Cloudy 700 ft
Mostly Cloudy 1700 ft
Overcast 5500 ft
Windchill 38 °F
Dew Point 45 °F
Humidity 98%
Rainfall 0.51 in
Snow Depth Not available.
6:05 AM 7:50 PM
New Moon, 1% visible
METAR KIJX 270715Z AUTO 30016G23KT 7SM RA BKN007 BKN017 OVC055 07/06 A2949 RMK AO2 P0003 T00720063

Get Your Daily Forecast Email!

Thanks for signing up!

Be on the lookout for a verification email in your inbox.

You'll start receiving severe weather alerts in your inbox..

×

10-Day Weather Forecast

Almanac

Astronomy

Apr. 27, 2017 Rise Set
Actual Time
Civil Twilight
Nautical Twilight
Astronomical Twilight
Moon
Length of Visible Light
Length of Day
Tomorrow will be .
, % of the Moon is Illuminated

Today's Extremes

State Highs State Lows

Community

WunderPhotos

WunderBlog® & News

Nearby

Air Quality

  Air Quality AQ Index Pollutant
Not available.

Snow Depth

Station Depth Elevation

Earthquake Activity

City Distance Mag. Time & Date
Minimum magnitude displayed is 2.5.

Coastal Water Temperatures

Place Temperature

Stations

Nearby Weather Stations

Station Location Temp. Windchill Dew Point Humidity Wind Precip. Elev Updated Type
                   

Watches & Warnings

Flood Warning
Issued: 9:25 PM CDT Apr. 26, 2017 – National Weather Service

The Flood Warning continues for
the Illinois River at Beardstown.
* Until further notice.
* At 845 PM Wednesday the stage was 16.3 feet.
* Flood stage is 14.0 feet.
* Minor flooding is occurring and minor flooding is forecast.
* Forecast... the river will remain near 16.3 feet overnight. Additional rises
may be possible thereafter.



                  Fld observed forecast 6am
location stg stg day time Thu Fri Sat

Illinois River
Beardstown 14 16.3 Wed 9 PM 16.1 15.9 15.9



Lat... Lon 4018 9023 4012 9017 4008 9037 3999 9046
      3999 9058 4015 9043